createdAt,value
2019-05-06T00:00:53.438Z,94.00
2019-05-06T00:03:13.867Z,94.10
2019-05-06T00:05:45.376Z,93.90
2019-05-06T00:08:16.087Z,94.00
2019-05-06T00:10:46.357Z,93.90
2019-05-06T00:13:16.703Z,93.90
2019-05-06T00:15:47.009Z,94.00
2019-05-06T00:18:17.314Z,93.80
2019-05-06T00:20:47.589Z,93.90
2019-05-06T00:23:25.307Z,93.70
2019-05-06T00:26:13.665Z,93.90
2019-05-06T00:28:45.746Z,94.20
2019-05-06T00:31:24.025Z,94.40
2019-05-06T00:33:54.494Z,94.40
2019-05-06T00:36:24.764Z,94.50
2019-05-06T00:38:57.813Z,94.50
2019-05-06T00:41:35.918Z,94.60
2019-05-06T00:44:04.600Z,94.50
2019-05-06T00:46:34.860Z,94.50
2019-05-06T00:49:05.172Z,94.40
2019-05-06T00:51:35.425Z,94.50
2019-05-06T00:54:21.208Z,94.50
2019-05-06T00:56:51.548Z,94.70
2019-05-06T00:59:23.702Z,94.60
2019-05-06T01:02:01.058Z,94.60
2019-05-06T01:04:34.087Z,94.30
2019-05-06T01:07:04.486Z,94.50
2019-05-06T01:09:36.470Z,94.60
2019-05-06T01:12:10.524Z,94.50
2019-05-06T01:14:54.380Z,94.70
2019-05-06T01:17:33.803Z,94.90
2019-05-06T01:20:06.574Z,94.90
2019-05-06T01:22:36.937Z,94.80
2019-05-06T01:25:07.381Z,95.00
2019-05-06T01:27:37.675Z,95.00
2019-05-06T01:30:08.701Z,95.00
2019-05-06T01:32:38.981Z,95.30
2019-05-06T01:35:09.431Z,95.20
2019-05-06T01:37:40.599Z,95.10
2019-05-06T01:40:18.748Z,95.10
2019-05-06T01:42:56.577Z,95.20
2019-05-06T01:45:26.897Z,95.30
2019-05-06T01:47:57.173Z,95.20
2019-05-06T01:50:27.579Z,95.10
2019-05-06T01:52:57.961Z,95.20
2019-05-06T01:55:28.309Z,95.40
2019-05-06T01:58:05.099Z,95.50
2019-05-06T02:00:35.608Z,95.60
2019-05-06T02:03:05.905Z,95.70
2019-05-06T02:05:36.252Z,95.80
2019-05-06T02:08:06.556Z,95.90
2019-05-06T02:10:38.196Z,95.90
2019-05-06T02:13:08.483Z,96.00
2019-05-06T02:15:46.432Z,96.00
2019-05-06T02:18:18.250Z,95.80
2019-05-06T02:20:50.157Z,95.90
2019-05-06T02:23:25.041Z,95.80
2019-05-06T02:25:55.961Z,95.80
2019-05-06T02:28:31.453Z,95.80
2019-05-06T02:31:26.208Z,95.90
2019-05-06T02:34:10.071Z,96.00
2019-05-06T02:37:09.487Z,96.20
2019-05-06T02:39:39.612Z,96.30
2019-05-06T02:42:12.803Z,96.10
2019-05-06T02:44:44.133Z,96.10
2019-05-06T02:47:34.274Z,96.10
2019-05-06T02:50:13.083Z,96.30
2019-05-06T02:52:44.090Z,96.40
2019-05-06T02:55:13.905Z,96.40
2019-05-06T02:57:55.482Z,96.40
2019-05-06T03:00:24.868Z,96.40
2019-05-06T03:02:57.774Z,96.30
2019-05-06T03:05:33.199Z,96.50
2019-05-06T03:08:03.278Z,96.60
2019-05-06T03:10:33.827Z,96.50
2019-05-06T03:13:04.161Z,96.40
2019-05-06T03:15:44.749Z,96.50
2019-05-06T03:18:15.273Z,96.60
2019-05-06T03:21:10.057Z,96.50
2019-05-06T03:23:43.349Z,96.40
2019-05-06T03:26:13.711Z,96.60
2019-05-06T03:28:44.345Z,96.70
2019-05-06T03:31:16.866Z,96.60
2019-05-06T03:34:03.724Z,96.40
2019-05-06T03:36:25.957Z,96.60
2019-05-06T03:38:53.346Z,96.50
2019-05-06T03:41:26.187Z,96.50
2019-05-06T03:44:03.083Z,96.40
2019-05-06T03:46:53.901Z,96.10
2019-05-06T03:49:25.382Z,96.10
2019-05-06T03:51:56.417Z,96.10
2019-05-06T03:54:27.359Z,96.10
2019-05-06T03:56:58.479Z,96.10
2019-05-06T03:59:33.317Z,96.00
2019-05-06T04:02:05.107Z,95.90
2019-05-06T04:04:34.351Z,96.00
2019-05-06T04:07:09.989Z,96.00
2019-05-06T04:09:40.244Z,96.20
2019-05-06T04:12:12.819Z,95.90
2019-05-06T04:14:47.816Z,95.80
2019-05-06T04:17:25.916Z,95.80
2019-05-06T04:19:57.866Z,95.60
2019-05-06T04:22:32.915Z,95.60
2019-05-06T04:25:04.316Z,95.70
2019-05-06T04:27:39.349Z,95.50
2019-05-06T04:30:13.249Z,95.30
2019-05-06T04:32:43.441Z,95.40
2019-05-06T04:35:14.440Z,95.50
2019-05-06T04:37:44.720Z,95.60
2019-05-06T04:40:15.961Z,95.60
2019-05-06T04:42:46.222Z,95.20
2019-05-06T04:45:17.379Z,95.20
2019-05-06T04:47:48.587Z,95.20
2019-05-06T04:50:18.830Z,95.50
2019-05-06T04:52:55.471Z,95.40
2019-05-06T04:55:25.799Z,95.60
2019-05-06T04:57:56.133Z,95.80
2019-05-06T05:00:44.069Z,95.30
2019-05-06T05:03:14.025Z,95.40
2019-05-06T05:05:45.221Z,95.30
2019-05-06T05:08:16.585Z,95.10
2019-05-06T05:11:00.351Z,95.00
2019-05-06T05:13:32.998Z,94.90
2019-05-06T05:16:15.481Z,95.10
2019-05-06T05:18:53.692Z,94.80
2019-05-06T05:21:24.017Z,94.70
2019-05-06T05:23:54.265Z,94.50
2019-05-06T05:26:24.980Z,94.00
2019-05-06T05:28:55.234Z,94.00
2019-05-06T05:31:25.656Z,93.80
2019-05-06T05:33:57.502Z,93.60
2019-05-06T05:36:28.382Z,93.60
2019-05-06T05:38:58.920Z,94.10
2019-05-06T05:41:29.213Z,93.50
2019-05-06T05:44:02.427Z,93.70
2019-05-06T05:46:33.090Z,93.70
2019-05-06T05:49:05.259Z,93.60
2019-05-06T05:51:35.609Z,93.40
2019-05-06T05:54:05.794Z,93.70
2019-05-06T05:56:36.120Z,93.00
2019-05-06T05:59:06.408Z,93.30
2019-05-06T06:01:37.251Z,92.90
2019-05-06T06:04:07.425Z,92.20
2019-05-06T06:06:37.781Z,92.80
2019-05-06T06:09:08.177Z,92.20
2019-05-06T06:11:46.614Z,92.00
2019-05-06T06:14:35.228Z,92.30
2019-05-06T06:17:10.260Z,91.90
2019-05-06T06:19:53.294Z,92.20
2019-05-06T06:22:25.454Z,91.60
2019-05-06T06:24:55.950Z,91.90
2019-05-06T06:27:26.884Z,90.30
2019-05-06T06:29:57.262Z,89.60
2019-05-06T06:32:29.386Z,88.60
2019-05-06T06:35:10.866Z,85.90
2019-05-06T06:37:37.664Z,84.30
2019-05-06T06:40:10.227Z,84.00
2019-05-06T06:42:42.620Z,82.90
2019-05-06T06:45:12.672Z,83.60
2019-05-06T06:47:42.945Z,84.20
2019-05-06T06:50:13.679Z,83.50
2019-05-06T06:52:44.149Z,81.50
2019-05-06T06:55:14.826Z,82.80
2019-05-06T06:57:51.905Z,82.50
2019-05-06T07:00:24.531Z,82.10
2019-05-06T07:03:05.367Z,79.60
2019-05-06T07:05:42.203Z,79.40
2019-05-06T07:08:12.656Z,79.40
2019-05-06T07:10:43.228Z,79.70
2019-05-06T07:13:18.360Z,79.10
2019-05-06T07:15:51.400Z,77.10
2019-05-06T07:18:24.692Z,75.80
2019-05-06T07:20:56.543Z,76.40
2019-05-06T07:23:37.698Z,76.80
2019-05-06T07:26:09.646Z,74.90
2019-05-06T07:28:39.918Z,73.80
2019-05-06T07:31:18.783Z,70.40
2019-05-06T07:33:42.881Z,71.70
2019-05-06T07:36:14.403Z,73.10
2019-05-06T07:38:52.748Z,73.30
2019-05-06T07:41:27.735Z,71.30
2019-05-06T07:44:05.824Z,70.00
2019-05-06T07:46:37.688Z,70.10
2019-05-06T07:49:08.117Z,68.50
2019-05-06T07:51:38.364Z,66.60
2019-05-06T07:54:12.127Z,67.70
2019-05-06T07:56:42.862Z,65.70
2019-05-06T07:59:13.201Z,61.80
2019-05-06T08:01:44.340Z,64.40
2019-05-06T08:04:14.781Z,65.30
2019-05-06T08:06:45.199Z,67.80
2019-05-06T08:09:15.773Z,62.90
2019-05-06T08:11:46.309Z,62.50
2019-05-06T08:14:16.525Z,58.90
2019-05-06T08:16:49.157Z,60.30
2019-05-06T08:19:19.469Z,60.00
2019-05-06T08:21:57.819Z,59.30
2019-05-06T08:24:28.121Z,59.00
2019-05-06T08:26:58.583Z,57.40
2019-05-06T08:29:28.991Z,56.50
2019-05-06T08:31:59.329Z,55.80
2019-05-06T08:34:29.633Z,57.70
2019-05-06T08:37:04.417Z,58.20
2019-05-06T08:39:35.816Z,59.60
2019-05-06T08:42:06.202Z,56.10
2019-05-06T08:44:36.486Z,56.60
2019-05-06T08:47:06.854Z,57.10
2019-05-06T08:49:55.151Z,55.30
2019-05-06T08:52:26.975Z,52.80
2019-05-06T08:55:02.164Z,52.70
2019-05-06T08:57:32.529Z,55.00
2019-05-06T09:00:03.538Z,53.80
2019-05-06T09:02:35.456Z,53.10
2019-05-06T09:05:07.550Z,53.80
2019-05-06T09:07:37.747Z,52.90
2019-05-06T09:10:09.504Z,52.50
2019-05-06T09:12:39.731Z,51.30
2019-05-06T09:15:12.479Z,50.90
2019-05-06T09:17:42.563Z,50.40
2019-05-06T09:20:13.690Z,51.40
2019-05-06T09:22:43.931Z,52.80
2019-05-06T09:25:14.229Z,52.70
2019-05-06T09:27:48.810Z,49.70
2019-05-06T09:30:33.093Z,49.50
2019-05-06T09:33:03.452Z,49.90
2019-05-06T09:35:33.668Z,50.10
2019-05-06T09:38:03.958Z,49.50
2019-05-06T09:40:34.584Z,48.70
2019-05-06T09:43:04.895Z,48.90
2019-05-06T09:45:35.706Z,46.80
2019-05-06T09:48:07.850Z,47.60
2019-05-06T09:50:45.846Z,45.30
2019-05-06T09:53:15.887Z,47.00
2019-05-06T09:55:47.760Z,47.00
2019-05-06T09:58:18.135Z,47.00
2019-05-06T10:00:49.982Z,46.00
2019-05-06T10:03:22.511Z,44.80
2019-05-06T10:05:53.209Z,44.90
2019-05-06T10:08:23.597Z,44.90
2019-05-06T10:10:59.487Z,44.70
2019-05-06T10:13:26.650Z,44.00
2019-05-06T10:15:58.017Z,43.70
2019-05-06T10:18:28.420Z,44.00
2019-05-06T10:20:58.749Z,44.40
2019-05-06T10:23:29.013Z,44.40
2019-05-06T10:25:59.294Z,47.10
2019-05-06T10:28:49.090Z,44.50
2019-05-06T10:31:21.892Z,46.80
2019-05-06T10:34:13.954Z,47.50
2019-05-06T10:37:12.657Z,48.70
2019-05-06T10:39:47.044Z,49.00
2019-05-06T10:42:20.274Z,47.70
2019-05-06T10:45:01.687Z,47.90
2019-05-06T10:47:33.308Z,46.40
2019-05-06T10:50:04.308Z,47.40
2019-05-06T10:52:36.239Z,46.30
2019-05-06T10:55:06.764Z,47.00
2019-05-06T10:57:40.482Z,45.30
2019-05-06T11:00:12.345Z,45.90
2019-05-06T11:02:47.217Z,46.70
2019-05-06T11:05:17.694Z,45.80
2019-05-06T11:07:48.020Z,48.00
2019-05-06T11:10:27.010Z,46.40
2019-05-06T11:12:52.196Z,46.90
2019-05-06T11:15:23.262Z,48.80
2019-05-06T11:17:53.872Z,45.50
2019-05-06T11:20:24.333Z,44.40
2019-05-06T11:22:54.629Z,43.90
2019-05-06T11:25:25.009Z,41.80
2019-05-06T11:27:55.419Z,43.00
2019-05-06T11:30:39.283Z,42.10
2019-05-06T11:33:22.378Z,43.60
2019-05-06T11:35:54.666Z,43.80
2019-05-06T11:38:25.664Z,42.60
2019-05-06T11:40:55.957Z,43.50
2019-05-06T11:43:27.347Z,44.00
2019-05-06T11:45:57.671Z,42.60
2019-05-06T11:48:28.591Z,42.90
2019-05-06T11:51:00.468Z,44.40
2019-05-06T11:53:32.621Z,44.70
2019-05-06T11:56:03.125Z,43.90
2019-05-06T11:58:47.316Z,44.30
2019-05-06T12:01:19.154Z,43.30
2019-05-06T12:03:49.587Z,43.10
2019-05-06T12:06:22.833Z,42.90
2019-05-06T12:08:53.237Z,43.30
2019-05-06T12:11:24.025Z,42.20
2019-05-06T12:13:54.278Z,44.20
2019-05-06T12:16:26.113Z,43.00
2019-05-06T12:18:59.638Z,43.00
2019-05-06T12:21:28.909Z,44.90
2019-05-06T12:23:59.201Z,48.30
2019-05-06T12:26:32.607Z,51.50
2019-05-06T12:29:02.949Z,51.70
2019-05-06T12:31:33.312Z,53.80
2019-05-06T12:34:04.024Z,55.10
2019-05-06T12:36:34.394Z,55.80
2019-05-06T12:39:19.167Z,54.70
2019-05-06T12:42:07.180Z,55.60
2019-05-06T12:44:39.321Z,54.40
2019-05-06T12:47:32.819Z,54.80
2019-05-06T12:50:03.040Z,57.30
2019-05-06T12:52:35.867Z,56.00
2019-05-06T12:55:18.346Z,55.00
2019-05-06T12:57:43.029Z,51.80
2019-05-06T13:00:13.841Z,53.30
2019-05-06T13:02:44.273Z,52.70
2019-05-06T13:05:15.570Z,51.70
2019-05-06T13:07:47.190Z,51.60
2019-05-06T13:10:19.441Z,50.20
2019-05-06T13:12:53.894Z,50.80
2019-05-06T13:15:24.402Z,51.00
2019-05-06T13:17:54.444Z,50.20
2019-05-06T13:20:24.657Z,49.20
2019-05-06T13:22:59.568Z,47.90
2019-05-06T13:25:29.914Z,49.10
2019-05-06T13:28:00.677Z,49.20
2019-05-06T13:30:32.598Z,49.80
2019-05-06T13:33:04.637Z,56.70
2019-05-06T13:35:35.002Z,57.40
2019-05-06T13:38:05.346Z,59.60
2019-05-06T13:40:53.228Z,59.60
2019-05-06T13:43:13.351Z,57.70
2019-05-06T13:45:52.557Z,57.70
2019-05-06T13:48:35.224Z,59.50
2019-05-06T13:51:07.180Z,59.90
2019-05-06T13:53:40.543Z,59.70
2019-05-06T13:56:09.453Z,59.80
2019-05-06T13:58:39.751Z,61.00
2019-05-06T14:01:14.723Z,61.40
2019-05-06T14:03:44.975Z,62.40
2019-05-06T14:06:15.268Z,60.10
2019-05-06T14:08:45.536Z,59.00
2019-05-06T14:11:15.865Z,60.40
2019-05-06T14:13:46.065Z,61.00
2019-05-06T14:16:17.000Z,59.00
2019-05-06T14:18:47.231Z,59.20
2019-05-06T14:21:17.535Z,59.30
2019-05-06T14:23:47.793Z,59.90
2019-05-06T14:26:25.547Z,58.80
2019-05-06T14:29:06.156Z,59.20
2019-05-06T14:31:38.566Z,59.90
2019-05-06T14:34:08.804Z,61.40
2019-05-06T14:36:39.072Z,60.70
2019-05-06T14:39:12.691Z,59.20
2019-05-06T14:41:54.325Z,60.10
2019-05-06T14:44:24.582Z,60.60
2019-05-06T14:46:56.409Z,62.60
2019-05-06T14:49:26.718Z,61.40
2019-05-06T14:51:57.512Z,62.80
2019-05-06T14:54:27.776Z,61.40
2019-05-06T14:57:12.264Z,62.20
2019-05-06T14:59:50.876Z,60.30
2019-05-06T15:02:19.736Z,59.10
2019-05-06T15:04:50.037Z,59.00
2019-05-06T15:07:22.060Z,58.30
2019-05-06T15:10:02.582Z,58.70
2019-05-06T15:12:24.119Z,58.40
2019-05-06T15:14:54.801Z,57.20
2019-05-06T15:17:25.022Z,58.60
2019-05-06T15:19:55.468Z,58.10
2019-05-06T15:22:25.741Z,58.10
2019-05-06T15:24:56.612Z,58.10
2019-05-06T15:27:26.910Z,57.60
2019-05-06T15:30:08.003Z,56.30
2019-05-06T15:32:39.190Z,56.30
2019-05-06T15:35:13.023Z,54.80
2019-05-06T15:37:56.729Z,56.40
2019-05-06T15:40:36.787Z,56.50
2019-05-06T15:43:07.253Z,56.00
2019-05-06T15:45:37.509Z,56.10
2019-05-06T15:48:07.829Z,55.10
2019-05-06T15:50:38.095Z,56.10
2019-05-06T15:53:08.388Z,56.10
2019-05-06T15:55:38.660Z,57.10
2019-05-06T15:58:08.971Z,55.90
2019-05-06T16:00:39.242Z,56.20
2019-05-06T16:03:12.782Z,57.20
2019-05-06T16:05:43.710Z,56.50
2019-05-06T16:08:14.176Z,56.40
2019-05-06T16:10:52.629Z,57.00
2019-05-06T16:13:17.663Z,57.00
2019-05-06T16:15:48.125Z,56.80
2019-05-06T16:18:18.366Z,56.00
2019-05-06T16:20:48.629Z,55.80
2019-05-06T16:23:35.917Z,55.20
2019-05-06T16:26:06.229Z,55.50
2019-05-06T16:28:36.514Z,56.20
2019-05-06T16:31:06.768Z,56.30
2019-05-06T16:33:37.134Z,56.10
2019-05-06T16:36:07.424Z,55.50
2019-05-06T16:38:37.655Z,55.70
2019-05-06T16:41:12.993Z,55.20
2019-05-06T16:43:42.592Z,54.30
2019-05-06T16:46:12.772Z,53.30
2019-05-06T16:48:45.482Z,51.80
2019-05-06T16:51:15.024Z,51.90
2019-05-06T16:53:45.371Z,53.40
2019-05-06T16:56:17.143Z,52.60
2019-05-06T16:58:58.062Z,52.70
2019-05-06T17:01:28.310Z,52.50
2019-05-06T17:04:00.171Z,51.50
2019-05-06T17:06:52.311Z,51.90
2019-05-06T17:09:27.058Z,52.60
2019-05-06T17:11:55.075Z,51.20
2019-05-06T17:14:25.360Z,52.30
2019-05-06T17:16:55.740Z,52.80
2019-05-06T17:19:27.105Z,50.70
2019-05-06T17:21:57.372Z,50.40
2019-05-06T17:24:27.668Z,51.40
2019-05-06T17:26:58.288Z,51.90
2019-05-06T17:29:38.740Z,52.30
2019-05-06T17:32:29.488Z,52.50
2019-05-06T17:35:02.630Z,52.10
2019-05-06T17:37:53.895Z,52.40
2019-05-06T17:40:24.606Z,52.70
2019-05-06T17:42:55.021Z,53.10
2019-05-06T17:45:58.517Z,53.40
2019-05-06T17:48:23.247Z,53.70
2019-05-06T17:51:12.865Z,54.30
2019-05-06T17:53:44.297Z,54.70
2019-05-06T17:56:15.195Z,55.20
2019-05-06T17:58:45.484Z,54.10
2019-05-06T18:01:17.773Z,53.40
2019-05-06T18:03:49.947Z,53.20
2019-05-06T18:06:25.825Z,53.50
2019-05-06T18:08:56.179Z,53.60
2019-05-06T18:11:26.428Z,54.50
2019-05-06T18:13:57.168Z,54.70
2019-05-06T18:16:29.197Z,54.40
2019-05-06T18:18:59.488Z,55.20
2019-05-06T18:21:29.802Z,55.40
2019-05-06T18:24:00.076Z,56.10
2019-05-06T18:26:32.202Z,55.90
2019-05-06T18:29:02.275Z,56.50
2019-05-06T18:31:33.502Z,57.20
2019-05-06T18:34:06.348Z,57.80
2019-05-06T18:36:35.798Z,58.40
2019-05-06T18:39:07.059Z,58.90
2019-05-06T18:41:46.156Z,60.40
2019-05-06T18:44:17.354Z,60.00
2019-05-06T18:46:47.579Z,60.70
2019-05-06T18:49:17.865Z,61.10
2019-05-06T18:51:51.316Z,61.40
2019-05-06T18:54:22.043Z,61.90
2019-05-06T18:56:53.465Z,63.10
2019-05-06T18:59:23.741Z,63.20
2019-05-06T19:01:54.111Z,64.10
2019-05-06T19:04:25.890Z,64.70
2019-05-06T19:07:09.555Z,65.40
2019-05-06T19:09:42.368Z,66.20
2019-05-06T19:12:27.621Z,66.70
2019-05-06T19:14:44.776Z,67.30
2019-05-06T19:17:22.520Z,67.40
2019-05-06T19:19:52.938Z,67.90
2019-05-06T19:22:23.679Z,68.30
2019-05-06T19:24:53.947Z,68.60
2019-05-06T19:27:25.005Z,68.60
2019-05-06T19:29:56.526Z,69.10
2019-05-06T19:32:27.952Z,69.50
2019-05-06T19:34:58.212Z,69.80
2019-05-06T19:37:28.504Z,70.60
2019-05-06T19:39:58.866Z,70.90
2019-05-06T19:42:45.605Z,71.40
2019-05-06T19:45:02.566Z,72.20
2019-05-06T19:47:34.166Z,72.90
2019-05-06T19:50:05.956Z,73.10
2019-05-06T19:52:36.254Z,73.90
2019-05-06T19:55:08.006Z,74.30
2019-05-06T19:57:38.389Z,75.10
2019-05-06T20:00:09.866Z,75.80
2019-05-06T20:02:40.261Z,76.70
2019-05-06T20:05:18.198Z,77.40
2019-05-06T20:07:52.150Z,77.90
2019-05-06T20:10:39.247Z,78.50
2019-05-06T20:13:09.665Z,79.20
2019-05-06T20:15:42.685Z,80.00
2019-05-06T20:18:13.260Z,80.30
2019-05-06T20:20:43.618Z,81.40
2019-05-06T20:23:13.997Z,80.80
2019-05-06T20:25:44.943Z,81.00
2019-05-06T20:28:15.594Z,82.30
2019-05-06T20:30:47.088Z,82.00
2019-05-06T20:33:17.391Z,82.30
2019-05-06T20:35:47.829Z,82.50
2019-05-06T20:38:18.069Z,82.80
2019-05-06T20:40:48.319Z,83.00
2019-05-06T20:43:21.691Z,83.20
2019-05-06T20:45:52.203Z,83.40
2019-05-06T20:48:23.485Z,83.60
2019-05-06T20:50:54.082Z,83.90
2019-05-06T20:53:24.361Z,84.30
2019-05-06T20:55:54.608Z,84.20
2019-05-06T20:58:24.935Z,84.50
2019-05-06T21:00:55.138Z,84.70
2019-05-06T21:03:25.496Z,85.00
2019-05-06T21:05:55.825Z,85.50
2019-05-06T21:08:26.100Z,85.90
2019-05-06T21:10:56.379Z,86.40
2019-05-06T21:13:31.406Z,86.80
2019-05-06T21:15:58.633Z,87.40
2019-05-06T21:18:29.051Z,87.80
2019-05-06T21:20:59.378Z,88.30
2019-05-06T21:23:31.969Z,88.70
2019-05-06T21:26:03.326Z,89.10
2019-05-06T21:28:33.730Z,89.30
2019-05-06T21:31:04.052Z,89.70
2019-05-06T21:33:34.372Z,90.10
2019-05-06T21:36:04.590Z,90.50
2019-05-06T21:38:34.928Z,90.20
2019-05-06T21:41:05.184Z,90.80
2019-05-06T21:43:46.330Z,90.40
2019-05-06T21:46:07.701Z,90.40
2019-05-06T21:48:38.144Z,90.60
2019-05-06T21:51:12.704Z,90.80
2019-05-06T21:53:43.294Z,90.90
2019-05-06T21:56:13.630Z,91.10
2019-05-06T21:58:44.605Z,91.20
2019-05-06T22:01:15.127Z,91.30
2019-05-06T22:03:45.434Z,91.60
2019-05-06T22:06:15.668Z,91.40
2019-05-06T22:08:45.986Z,91.60
2019-05-06T22:11:16.351Z,91.60
2019-05-06T22:13:57.954Z,91.60
2019-05-06T22:16:18.804Z,91.50
2019-05-06T22:18:49.125Z,91.40
2019-05-06T22:21:22.491Z,91.30
2019-05-06T22:23:59.313Z,91.40
2019-05-06T22:26:29.737Z,91.20
2019-05-06T22:29:01.909Z,91.20
2019-05-06T22:31:33.100Z,90.90
2019-05-06T22:34:03.595Z,90.50
2019-05-06T22:36:33.974Z,90.50
2019-05-06T22:39:06.032Z,90.50
2019-05-06T22:41:37.424Z,90.50
2019-05-06T22:44:13.739Z,90.20
2019-05-06T22:46:42.432Z,90.10
2019-05-06T22:49:13.333Z,90.10
2019-05-06T22:51:43.795Z,90.00
2019-05-06T22:54:14.131Z,89.70
2019-05-06T22:56:44.393Z,90.00
2019-05-06T22:59:14.750Z,90.00
2019-05-06T23:01:46.652Z,90.20
2019-05-06T23:04:18.551Z,90.20
2019-05-06T23:06:48.753Z,90.10
2019-05-06T23:09:19.198Z,90.00
2019-05-06T23:11:49.475Z,90.00
2019-05-06T23:14:30.644Z,90.00
2019-05-06T23:16:52.150Z,90.00
2019-05-06T23:19:24.487Z,90.00
2019-05-06T23:21:54.760Z,90.10
2019-05-06T23:24:25.018Z,90.10
2019-05-06T23:26:55.394Z,90.30
2019-05-06T23:29:25.815Z,90.50
2019-05-06T23:31:56.116Z,90.70
2019-05-06T23:34:26.469Z,90.80
2019-05-06T23:37:02.405Z,90.80
2019-05-06T23:40:12.703Z,91.10
2019-05-06T23:43:19.610Z,91.20
2019-05-06T23:46:26.190Z,91.30
2019-05-06T23:49:33.089Z,91.50
2019-05-06T23:52:39.835Z,91.60
2019-05-06T23:55:46.215Z,92.00
2019-05-06T23:58:15.279Z,91.90
